Time;durP1;ratioP1;P1;durP2;ratioP2;P2;SDS_P1;SDS_P2;PMS_P1;PMS_P2;Temp;Humidity;BMP_temperature;BMP_pressure;BME280_temperature;BME280_humidity;BME280_pressure;Samples;Min_cycle;Max_cycle;Signal;HPM_P1;HPM_P2
2022/03/15 00:01:17;;;;;;;15.30;10.85;;;7.90;99.90;;;;;;5067702;28;20041;-53
2022/03/15 00:03:43;;;;;;;16.60;10.93;;;7.90;99.90;;;;;;5084767;28;20395;-52
2022/03/15 00:06:08;;;;;;;18.15;11.32;;;7.90;99.90;;;;;;5087606;28;20032;-52
2022/03/15 00:08:34;;;;;;;16.92;10.80;;;7.90;99.90;;;;;;5073816;28;20395;-53
2022/03/15 00:11:04;;;;;;;12.23;8.95;;;7.90;99.90;;;;;;5067800;28;20036;-51
2022/03/15 00:13:30;;;;;;;15.38;9.48;;;7.90;99.90;;;;;;5057071;28;20025;-55
2022/03/15 00:16:02;;;;;;;16.23;10.38;;;7.90;99.90;;;;;;5066717;28;20049;-55
2022/03/15 00:18:30;;;;;;;19.08;12.13;;;7.90;99.90;;;;;;5063194;28;20115;-54
2022/03/15 00:21:08;;;;;;;15.30;9.68;;;7.90;99.90;;;;;;5087121;28;20024;-55
2022/03/15 00:23:34;;;;;;;16.60;10.48;;;7.90;99.90;;;;;;5071468;28;20123;-54
2022/03/15 00:26:02;;;;;;;14.27;10.10;;;8.00;99.90;;;;;;5067348;28;20143;-53
2022/03/15 00:28:29;;;;;;;15.13;10.15;;;7.90;99.90;;;;;;5078056;28;20502;-53
2022/03/15 00:30:55;;;;;;;20.02;12.45;;;7.90;99.90;;;;;;5072096;28;20025;-52
2022/03/15 00:33:21;;;;;;;14.73;9.50;;;7.90;99.90;;;;;;5072388;28;20438;-52
2022/03/15 00:35:47;;;;;;;19.63;12.38;;;7.90;99.90;;;;;;5083463;28;20024;-53
2022/03/15 00:38:13;;;;;;;14.27;10.07;;;7.90;99.90;;;;;;5066430;28;20405;-52
2022/03/15 00:40:39;;;;;;;20.33;12.55;;;7.90;99.90;;;;;;5087067;28;20040;-54
2022/03/15 00:43:06;;;;;;;22.95;14.80;;;7.80;99.90;;;;;;5082784;28;20089;-55
2022/03/15 00:45:31;;;;;;;18.42;11.02;;;7.80;99.90;;;;;;5086552;28;20038;-53
2022/03/15 00:48:00;;;;;;;16.77;10.65;;;7.80;99.90;;;;;;5082190;28;20106;-53
2022/03/15 00:50:29;;;;;;;17.45;11.43;;;7.80;99.90;;;;;;5087068;28;20028;-54
2022/03/15 00:52:56;;;;;;;17.38;10.75;;;7.80;99.90;;;;;;5066992;28;20547;-55
2022/03/15 00:55:21;;;;;;;19.48;12.82;;;7.80;99.90;;;;;;5086807;28;20039;-54
2022/03/15 00:57:47;;;;;;;18.42;11.80;;;7.70;99.90;;;;;;5082047;28;20040;-54
2022/03/15 01:00:14;;;;;;;18.83;12.00;;;7.70;99.90;;;;;;5086820;28;20042;-50
2022/03/15 01:02:39;;;;;;;15.65;10.63;;;7.60;99.90;;;;;;5085567;28;20031;-51
2022/03/15 01:05:05;;;;;;;17.70;11.00;;;7.50;99.90;;;;;;5088915;28;20024;-53
2022/03/15 01:07:31;;;;;;;15.02;10.63;;;7.50;99.90;;;;;;5069405;28;20033;-54
2022/03/15 01:09:56;;;;;;;24.20;12.00;;;7.50;99.90;;;;;;5086466;28;20082;-53
2022/03/15 01:12:22;;;;;;;16.05;10.27;;;7.40;99.90;;;;;;5069320;28;20029;-52
2022/03/15 01:14:47;;;;;;;18.10;11.18;;;7.30;99.90;;;;;;5067964;28;20555;-51
2022/03/15 01:17:13;;;;;;;25.05;14.02;;;7.10;99.90;;;;;;5088155;28;20043;-53
2022/03/15 01:19:38;;;;;;;19.73;11.40;;;6.90;99.90;;;;;;5067298;28;20488;-55
2022/03/15 01:22:04;;;;;;;21.75;12.65;;;6.80;99.90;;;;;;5088205;28;20039;-52
2022/03/15 01:24:30;;;;;;;23.35;13.35;;;6.60;99.90;;;;;;5067165;28;20163;-55
2022/03/15 01:26:56;;;;;;;19.30;11.88;;;6.50;99.90;;;;;;5075862;28;20090;-52
2022/03/15 01:29:24;;;;;;;20.20;11.65;;;6.30;99.90;;;;;;5081588;28;20020;-50
2022/03/15 01:31:49;;;;;;;17.50;11.15;;;6.20;99.90;;;;;;5068634;28;20117;-53
2022/03/15 01:34:15;;;;;;;18.23;10.30;;;6.30;99.90;;;;;;5072531;28;20056;-51
2022/03/15 01:36:41;;;;;;;23.52;11.95;;;6.30;99.90;;;;;;5087824;28;20040;-51
2022/03/15 01:39:07;;;;;;;20.73;12.13;;;6.40;99.90;;;;;;5067068;28;20020;-54
2022/03/15 01:41:38;;;;;;;22.88;12.73;;;6.50;99.90;;;;;;5088111;28;20036;-52
2022/03/15 01:44:11;;;;;;;20.25;11.52;;;6.60;99.90;;;;;;5058596;28;20042;-53
2022/03/15 01:46:37;;;;;;;17.02;10.13;;;6.60;99.90;;;;;;5048482;28;20112;-53
2022/03/15 01:49:03;;;;;;;18.60;11.25;;;6.60;99.90;;;;;;5077880;28;20112;-51
2022/03/15 01:51:28;;;;;;;18.63;10.00;;;6.60;99.90;;;;;;5088610;28;20013;-55
2022/03/15 01:53:54;;;;;;;21.67;12.57;;;6.50;99.90;;;;;;5054302;28;20028;-52
2022/03/15 01:56:19;;;;;;;19.15;11.02;;;6.50;99.90;;;;;;5088453;28;20074;-52
2022/03/15 01:58:45;;;;;;;16.75;9.85;;;6.40;99.90;;;;;;5074425;28;20052;-53
2022/03/15 02:01:11;;;;;;;19.23;11.32;;;6.50;99.90;;;;;;5092223;28;20066;-50
2022/03/15 02:03:36;;;;;;;18.23;11.55;;;6.50;99.90;;;;;;5073985;28;20047;-52
2022/03/15 02:06:05;;;;;;;21.13;11.23;;;6.50;99.90;;;;;;5092339;28;20032;-54
2022/03/15 02:08:31;;;;;;;27.25;14.60;;;6.40;99.90;;;;;;5072348;28;20086;-52
2022/03/15 02:10:57;;;;;;;20.88;11.38;;;6.30;99.90;;;;;;5074241;28;20399;-53
2022/03/15 02:13:24;;;;;;;21.88;11.55;;;6.20;99.90;;;;;;5071477;28;20108;-55
2022/03/15 02:15:49;;;;;;;22.27;11.85;;;6.10;99.90;;;;;;5092396;28;20040;-51
2022/03/15 02:18:15;;;;;;;20.58;11.75;;;5.90;99.90;;;;;;5070558;28;20050;-54
2022/03/15 02:20:40;;;;;;;20.77;11.73;;;5.90;99.90;;;;;;5092336;28;20024;-52
2022/03/15 02:23:06;;;;;;;23.40;12.73;;;5.80;99.90;;;;;;5072404;28;20026;-54
2022/03/15 02:25:31;;;;;;;20.27;11.23;;;5.80;99.90;;;;;;5071181;28;20044;-55
2022/03/15 02:27:57;;;;;;;21.10;11.65;;;5.70;99.90;;;;;;5084541;28;20028;-52
2022/03/15 02:30:22;;;;;;;23.42;13.38;;;5.80;99.90;;;;;;5070299;28;20040;-55
2022/03/15 02:32:48;;;;;;;23.92;13.27;;;5.90;99.90;;;;;;5091126;28;20035;-51
2022/03/15 02:35:15;;;;;;;26.60;14.60;;;6.00;99.90;;;;;;5070030;28;20032;-49
2022/03/15 02:37:40;;;;;;;27.10;14.32;;;6.10;99.90;;;;;;5091396;28;20017;-54
2022/03/15 02:40:07;;;;;;;25.23;12.90;;;6.20;99.90;;;;;;5070688;28;20115;-54
2022/03/15 02:42:33;;;;;;;23.05;12.68;;;6.30;99.90;;;;;;5090968;28;20273;-54
2022/03/15 02:44:58;;;;;;;26.02;14.10;;;6.40;99.90;;;;;;5070201;28;20071;-54
2022/03/15 02:47:24;;;;;;;19.48;11.85;;;6.40;99.90;;;;;;5090766;28;20043;-55
2022/03/15 02:49:49;;;;;;;24.92;13.57;;;6.50;99.90;;;;;;5070315;28;20059;-55
2022/03/15 02:52:15;;;;;;;21.40;11.52;;;6.50;99.90;;;;;;5090838;28;20031;-54
2022/03/15 02:54:41;;;;;;;27.30;13.80;;;6.60;99.90;;;;;;5070238;28;20388;-54
2022/03/15 02:57:09;;;;;;;23.98;12.73;;;6.60;99.90;;;;;;5090846;28;20032;-54
2022/03/15 02:59:35;;;;;;;26.15;13.10;;;6.60;99.90;;;;;;5080588;28;20320;-52
2022/03/15 03:02:00;;;;;;;22.33;11.52;;;6.60;99.90;;;;;;5071654;28;20376;-55
2022/03/15 03:04:27;;;;;;;23.50;13.05;;;6.50;99.90;;;;;;5088547;28;20028;-55
2022/03/15 03:06:53;;;;;;;25.17;13.20;;;6.50;99.90;;;;;;5071480;28;20039;-55
2022/03/15 03:09:19;;;;;;;26.00;13.25;;;6.40;99.90;;;;;;5087908;28;20032;-52
2022/03/15 03:11:44;;;;;;;27.30;13.77;;;6.50;99.90;;;;;;5071545;28;20078;-55
2022/03/15 03:14:13;;;;;;;24.13;12.88;;;6.50;99.90;;;;;;5088491;28;20027;-54
2022/03/15 03:16:39;;;;;;;15.48;9.60;;;6.50;99.90;;;;;;5071055;28;20036;-55
2022/03/15 03:19:08;;;;;;;19.33;11.80;;;6.50;99.90;;;;;;5088515;28;20067;-51
2022/03/15 03:21:36;;;;;;;18.88;10.63;;;6.60;99.90;;;;;;5091366;28;20391;-52
2022/03/15 03:24:06;;;;;;;15.05;9.98;;;6.60;99.90;;;;;;5069917;28;20041;-53
2022/03/15 03:26:34;;;;;;;23.30;11.82;;;6.60;99.90;;;;;;5069086;28;20353;-53
2022/03/15 03:29:00;;;;;;;26.20;12.35;;;6.50;99.90;;;;;;5088799;28;20024;-49
2022/03/15 03:31:26;;;;;;;21.60;11.73;;;6.60;99.90;;;;;;5090947;28;20024;-56
2022/03/15 03:33:51;;;;;;;24.13;13.80;;;6.50;99.90;;;;;;5074129;28;20024;-53
2022/03/15 03:36:17;;;;;;;23.25;12.18;;;6.40;99.90;;;;;;5090878;28;20089;-54
2022/03/15 03:38:42;;;;;;;21.63;11.07;;;6.40;99.90;;;;;;5072760;28;20051;-52
2022/03/15 03:41:08;;;;;;;22.27;11.23;;;6.30;99.90;;;;;;5090722;28;20032;-53
2022/03/15 03:43:34;;;;;;;21.08;11.48;;;6.40;99.90;;;;;;5071645;28;20025;-55
2022/03/15 03:46:00;;;;;;;19.30;11.35;;;6.40;99.90;;;;;;5090655;28;20024;-53
2022/03/15 03:48:26;;;;;;;27.48;13.85;;;6.40;99.90;;;;;;5070347;28;20032;-54
2022/03/15 03:50:52;;;;;;;29.00;14.18;;;6.50;99.90;;;;;;5090429;28;20027;-51
2022/03/15 03:53:18;;;;;;;20.10;11.95;;;6.50;99.90;;;;;;5069025;28;20029;-53
2022/03/15 03:55:44;;;;;;;23.67;13.25;;;6.50;99.90;;;;;;5090328;28;20139;-57
2022/03/15 03:58:10;;;;;;;22.23;12.68;;;6.40;99.90;;;;;;5070401;28;20400;-53
2022/03/15 04:00:36;;;;;;;31.33;15.18;;;6.40;99.90;;;;;;5088067;28;20491;-56
2022/03/15 04:03:03;;;;;;;18.88;11.02;;;6.30;99.90;;;;;;5070194;28;20032;-57
2022/03/15 04:05:35;;;;;;;18.00;11.23;;;6.30;99.90;;;;;;5069401;28;20032;-57
2022/03/15 04:08:00;;;;;;;27.92;14.07;;;6.40;99.90;;;;;;5050125;28;20029;-54
2022/03/15 04:10:28;;;;;;;26.42;14.07;;;6.40;99.90;;;;;;5068565;28;20037;-52
2022/03/15 04:12:55;;;;;;;24.23;12.75;;;6.40;99.90;;;;;;5089701;28;20031;-55
2022/03/15 04:15:21;;;;;;;18.42;9.98;;;6.50;99.90;;;;;;5068514;28;20573;-52
2022/03/15 04:17:47;;;;;;;28.08;14.82;;;6.50;99.90;;;;;;5089450;28;20435;-55
2022/03/15 04:20:13;;;;;;;24.20;12.90;;;6.50;99.90;;;;;;5068425;28;20029;-57
2022/03/15 04:22:38;;;;;;;21.60;11.90;;;6.60;99.90;;;;;;5089443;28;20024;-57
2022/03/15 04:25:04;;;;;;;22.98;13.18;;;6.60;99.90;;;;;;5068046;28;20047;-56
2022/03/15 04:27:30;;;;;;;22.25;13.10;;;6.60;99.90;;;;;;5074801;28;20669;-57
2022/03/15 04:29:55;;;;;;;24.95;14.07;;;6.60;99.90;;;;;;5073077;28;20503;-55
2022/03/15 04:32:21;;;;;;;31.85;15.63;;;6.60;99.90;;;;;;5089019;28;20040;-55
2022/03/15 04:34:46;;;;;;;23.02;13.23;;;6.60;99.90;;;;;;5067955;28;20024;-56
2022/03/15 04:37:12;;;;;;;21.42;11.90;;;6.60;99.90;;;;;;5088868;28;20032;-53
2022/03/15 04:39:37;;;;;;;27.50;14.02;;;6.60;99.90;;;;;;5068048;28;20353;-54
2022/03/15 04:42:05;;;;;;;23.02;14.15;;;6.70;99.90;;;;;;5088774;28;20040;-52
2022/03/15 04:44:30;;;;;;;29.45;16.00;;;6.70;99.90;;;;;;5078221;28;20451;-56
2022/03/15 04:46:56;;;;;;;22.00;12.32;;;6.70;99.90;;;;;;5069395;28;20032;-55
2022/03/15 04:49:21;;;;;;;31.08;16.08;;;6.70;99.90;;;;;;5086766;28;20030;-55
2022/03/15 04:51:47;;;;;;;23.42;13.07;;;6.70;99.90;;;;;;5069541;28;20037;-53
2022/03/15 04:54:13;;;;;;;24.45;14.00;;;6.70;99.90;;;;;;5086840;28;20032;-54
2022/03/15 04:56:38;;;;;;;24.05;12.40;;;6.70;99.90;;;;;;5069458;28;20036;-52
2022/03/15 04:59:04;;;;;;;20.15;11.60;;;6.70;99.90;;;;;;5086393;28;20483;-53
2022/03/15 05:01:30;;;;;;;27.27;15.27;;;6.70;99.90;;;;;;5089278;28;20660;-52
2022/03/15 05:03:55;;;;;;;29.45;15.93;;;6.70;99.90;;;;;;5072807;28;20200;-50
2022/03/15 05:06:20;;;;;;;30.63;15.45;;;6.70;99.90;;;;;;5089197;28;20475;-52
2022/03/15 05:08:48;;;;;;;27.48;14.38;;;6.70;99.90;;;;;;5071701;28;20136;-52
2022/03/15 05:11:14;;;;;;;25.10;14.38;;;6.60;99.90;;;;;;5089045;28;20055;-53
2022/03/15 05:13:44;;;;;;;27.95;15.20;;;6.70;99.90;;;;;;5070701;28;20020;-53
2022/03/15 05:16:13;;;;;;;25.10;14.27;;;6.70;99.90;;;;;;5088601;28;20411;-49
2022/03/15 05:18:40;;;;;;;26.65;13.98;;;6.60;99.90;;;;;;5070043;28;20017;-47
2022/03/15 05:21:09;;;;;;;29.15;14.80;;;6.60;99.90;;;;;;5088942;28;20048;-52
2022/03/15 05:23:35;;;;;;;23.73;13.55;;;6.60;99.90;;;;;;5067656;28;20045;-55
2022/03/15 05:26:01;;;;;;;26.35;15.23;;;6.60;99.90;;;;;;5068533;28;20115;-53
2022/03/15 05:28:27;;;;;;;25.58;13.98;;;6.60;99.90;;;;;;5082429;28;20028;-52
2022/03/15 05:30:53;;;;;;;31.73;17.48;;;6.60;99.90;;;;;;5085371;28;20555;-51
2022/03/15 05:33:18;;;;;;;32.95;16.73;;;6.60;99.90;;;;;;5086043;28;20115;-51
2022/03/15 05:35:44;;;;;;;28.23;15.45;;;6.50;99.90;;;;;;5088615;28;20072;-53
2022/03/15 05:38:10;;;;;;;28.65;15.05;;;6.50;99.90;;;;;;5071143;28;20107;-52
2022/03/15 05:40:36;;;;;;;27.90;15.82;;;6.50;99.90;;;;;;5088942;28;20028;-57
2022/03/15 05:43:01;;;;;;;30.75;15.40;;;6.40;99.90;;;;;;5069906;28;20027;-57
2022/03/15 05:45:27;;;;;;;28.65;14.65;;;6.40;99.90;;;;;;5088825;28;20031;-57
2022/03/15 05:47:54;;;;;;;26.75;14.98;;;6.50;99.90;;;;;;5068554;28;20396;-57
2022/03/15 05:50:20;;;;;;;29.30;15.23;;;6.50;99.90;;;;;;5088911;28;20032;-57
2022/03/15 05:52:45;;;;;;;27.90;15.70;;;6.60;99.90;;;;;;5067261;28;20039;-57
2022/03/15 05:55:11;;;;;;;31.65;16.42;;;6.60;99.90;;;;;;5088993;28;20031;-56
2022/03/15 05:57:38;;;;;;;31.17;16.80;;;6.60;99.90;;;;;;5068979;28;20075;-57
2022/03/15 06:00:05;;;;;;;29.83;16.15;;;6.70;99.90;;;;;;5066619;28;20024;-57
2022/03/15 06:02:31;;;;;;;34.28;16.50;;;6.70;99.90;;;;;;5087807;28;20032;-56
2022/03/15 06:04:57;;;;;;;27.02;13.95;;;6.80;99.90;;;;;;5067147;28;20405;-57
2022/03/15 06:07:23;;;;;;;32.05;15.27;;;6.80;99.90;;;;;;5087990;28;20020;-57
2022/03/15 06:09:49;;;;;;;28.73;15.43;;;6.90;99.90;;;;;;5067084;28;20033;-57
2022/03/15 06:12:14;;;;;;;27.27;14.38;;;6.90;99.90;;;;;;5087715;28;20020;-57
2022/03/15 06:14:40;;;;;;;31.75;15.43;;;7.00;99.90;;;;;;5066899;28;20036;-55
2022/03/15 06:17:06;;;;;;;28.38;15.02;;;7.00;99.90;;;;;;5087495;28;20036;-57
2022/03/15 06:19:31;;;;;;;28.02;15.57;;;7.10;99.90;;;;;;5066819;28;20082;-57
2022/03/15 06:21:56;;;;;;;33.05;15.70;;;7.20;99.90;;;;;;5087533;28;20081;-57
2022/03/15 06:24:26;;;;;;;29.23;15.18;;;7.30;99.90;;;;;;5076413;28;20127;-57
2022/03/15 06:26:52;;;;;;;28.38;15.00;;;7.40;99.90;;;;;;5076974;28;20078;-56
2022/03/15 06:29:18;;;;;;;30.20;16.40;;;7.40;99.90;;;;;;5079401;28;20311;-57
2022/03/15 06:31:43;;;;;;;31.98;16.63;;;7.40;99.90;;;;;;5068796;28;20291;-58
2022/03/15 06:34:09;;;;;;;32.42;17.77;;;7.40;99.90;;;;;;5073686;28;20420;-56
2022/03/15 06:36:34;;;;;;;29.80;16.00;;;7.40;99.90;;;;;;5087487;28;20066;-56
2022/03/15 06:39:00;;;;;;;23.75;13.60;;;7.50;99.90;;;;;;5077333;28;20070;-56
2022/03/15 06:41:26;;;;;;;32.17;16.33;;;7.60;99.90;;;;;;5068638;28;20082;-55
2022/03/15 06:43:52;;;;;;;30.92;17.02;;;7.60;99.90;;;;;;5085436;28;20024;-54
2022/03/15 06:46:17;;;;;;;32.13;16.33;;;7.70;99.90;;;;;;5067400;28;20024;-56
2022/03/15 06:48:43;;;;;;;30.40;16.02;;;7.80;99.90;;;;;;5071137;28;20055;-55
2022/03/15 06:51:09;;;;;;;34.30;17.38;;;7.80;99.90;;;;;;5052365;28;20127;-53
2022/03/15 06:53:35;;;;;;;37.60;17.13;;;7.90;99.90;;;;;;5091520;28;20070;-54
2022/03/15 06:56:00;;;;;;;37.60;16.65;;;8.00;99.90;;;;;;5070203;28;20575;-51
2022/03/15 06:58:26;;;;;;;31.95;17.45;;;8.00;99.90;;;;;;5090821;28;20024;-52
2022/03/15 07:00:54;;;;;;;30.30;17.48;;;8.10;99.90;;;;;;5071188;28;20032;-49
2022/03/15 07:03:19;;;;;;;35.17;18.35;;;8.10;99.90;;;;;;5070336;28;20052;-53
2022/03/15 07:05:44;;;;;;;31.55;15.73;;;8.10;99.90;;;;;;5089879;28;20451;-54
2022/03/15 07:08:10;;;;;;;32.13;16.30;;;8.30;99.90;;;;;;5068225;28;20021;-57
2022/03/15 07:10:36;;;;;;;34.38;18.63;;;8.30;99.90;;;;;;5090274;28;20384;-54
2022/03/15 07:13:01;;;;;;;35.63;18.15;;;8.50;99.90;;;;;;5069002;28;20038;-54
2022/03/15 07:15:27;;;;;;;25.23;14.40;;;8.60;99.90;;;;;;5089229;28;20380;-55
2022/03/15 07:17:55;;;;;;;38.30;19.45;;;8.90;99.90;;;;;;5068719;28;20438;-51
2022/03/15 07:20:21;;;;;;;32.33;16.63;;;9.10;99.90;;;;;;5089705;28;20403;-55
2022/03/15 07:22:47;;;;;;;31.48;16.77;;;9.50;99.90;;;;;;5050692;28;20028;-51
2022/03/15 07:25:13;;;;;;;35.35;18.40;;;9.70;99.90;;;;;;5089173;28;20051;-53
2022/03/15 07:27:39;;;;;;;30.13;16.50;;;9.90;99.90;;;;;;5072453;28;20498;-55
2022/03/15 07:30:05;;;;;;;25.83;15.38;;;10.20;99.90;;;;;;5070237;28;20021;-55
2022/03/15 07:32:31;;;;;;;24.00;14.98;;;10.40;99.90;;;;;;5073776;28;20115;-51
2022/03/15 07:34:56;;;;;;;31.40;16.80;;;10.70;99.90;;;;;;5089328;28;20058;-54
2022/03/15 07:37:22;;;;;;;32.63;18.15;;;10.90;99.90;;;;;;5067570;28;20047;-51
2022/03/15 07:39:47;;;;;;;30.73;17.13;;;11.80;99.90;;;;;;5084153;28;20059;-54
2022/03/15 07:42:13;;;;;;;29.17;17.00;;;12.60;99.90;;;;;;5067137;28;20480;-52
2022/03/15 07:44:42;;;;;;;27.75;16.67;;;13.10;99.90;;;;;;5069467;28;20412;-52
2022/03/15 07:47:07;;;;;;;30.85;16.95;;;13.70;99.90;;;;;;5087309;28;20024;-53
2022/03/15 07:49:33;;;;;;;25.92;16.60;;;14.00;97.20;;;;;;5069973;28;20120;-50
2022/03/15 07:51:58;;;;;;;29.73;16.42;;;14.30;95.30;;;;;;5086701;28;20026;-51
2022/03/15 07:54:24;;;;;;;20.50;13.10;;;14.40;94.40;;;;;;5069745;28;20036;-52
2022/03/15 07:56:50;;;;;;;28.55;16.05;;;15.70;90.20;;;;;;5086443;28;20108;-48
2022/03/15 07:59:15;;;;;;;25.85;15.52;;;16.90;77.90;;;;;;5069680;28;20111;-47
2022/03/15 08:01:41;;;;;;;26.42;15.98;;;17.90;70.90;;;;;;5086645;28;20323;-53
2022/03/15 08:04:06;;;;;;;26.33;16.80;;;18.40;64.60;;;;;;5089064;28;20077;-49
2022/03/15 08:06:35;;;;;;;26.50;17.55;;;18.60;61.00;;;;;;5072794;28;20024;-53
2022/03/15 08:09:01;;;;;;;26.67;16.58;;;19.00;58.60;;;;;;5089346;28;20024;-49
2022/03/15 08:11:26;;;;;;;24.45;17.67;;;19.40;45.60;;;;;;5072156;28;20016;-50
2022/03/15 08:13:53;;;;;;;25.83;16.42;;;19.70;51.30;;;;;;5089120;28;20059;-55
2022/03/15 08:16:19;;;;;;;18.85;13.43;;;20.00;49.10;;;;;;5070362;28;20036;-48
2022/03/15 08:18:44;;;;;;;24.67;16.15;;;20.00;48.30;;;;;;5089110;28;20052;-51
2022/03/15 08:21:10;;;;;;;24.70;16.10;;;20.80;43.80;;;;;;5069556;28;20470;-51
2022/03/15 08:23:36;;;;;;;21.75;15.55;;;21.40;40.70;;;;;;5084647;28;20077;-54
2022/03/15 08:26:01;;;;;;;24.55;16.42;;;22.20;37.60;;;;;;5067782;28;20025;-53
2022/03/15 08:28:27;;;;;;;17.30;12.25;;;22.80;35.20;;;;;;5082245;28;20115;-52
2022/03/15 08:30:54;;;;;;;21.13;13.85;;;23.10;32.70;;;;;;5068953;28;20036;-55
2022/03/15 08:33:20;;;;;;;19.10;14.38;;;23.50;31.20;;;;;;5088829;28;20024;-51
2022/03/15 08:35:46;;;;;;;16.80;12.38;;;23.70;29.50;;;;;;5068735;28;20563;-54
2022/03/15 08:38:12;;;;;;;20.27;13.93;;;24.20;29.10;;;;;;5066779;28;20117;-52
2022/03/15 08:40:38;;;;;;;19.40;14.25;;;24.50;26.90;;;;;;5087977;28;20086;-52
2022/03/15 08:43:04;;;;;;;17.48;12.25;;;25.00;25.50;;;;;;5066958;28;20536;-49
2022/03/15 08:45:30;;;;;;;19.63;13.45;;;25.30;24.40;;;;;;5088027;28;20036;-51
2022/03/15 08:47:56;;;;;;;20.42;14.00;;;25.60;24.20;;;;;;5066897;28;20036;-54
2022/03/15 08:50:22;;;;;;;15.18;10.68;;;26.10;23.20;;;;;;5087810;28;20569;-55
2022/03/15 08:52:48;;;;;;;16.83;13.10;;;25.90;22.20;;;;;;5066454;28;20511;-55
2022/03/15 08:55:14;;;;;;;20.65;14.48;;;26.00;21.70;;;;;;5074242;28;20128;-52
2022/03/15 08:57:39;;;;;;;17.63;12.05;;;26.00;20.70;;;;;;5066280;28;20044;-50
2022/03/15 09:00:07;;;;;;;15.32;11.85;;;25.90;20.50;;;;;;5087331;28;20415;-55
2022/03/15 09:02:34;;;;;;;18.77;14.50;;;26.20;20.60;;;;;;5066495;28;20098;-53
2022/03/15 09:04:59;;;;;;;15.95;11.07;;;26.10;18.70;;;;;;5087509;28;20404;-49
2022/03/15 09:07:27;;;;;;;13.98;11.15;;;25.70;19.60;;;;;;5065804;28;20031;-51
2022/03/15 09:09:52;;;;;;;15.88;11.38;;;25.60;19.50;;;;;;5087994;28;20430;-52
2022/03/15 09:12:18;;;;;;;14.45;11.55;;;25.80;18.70;;;;;;5066414;28;20048;-53
2022/03/15 09:14:44;;;;;;;13.77;10.80;;;26.00;18.10;;;;;;5087515;28;20084;-50
2022/03/15 09:17:10;;;;;;;14.45;10.82;;;26.10;17.50;;;;;;5076513;28;20028;-53
2022/03/15 09:19:36;;;;;;;15.82;12.52;;;25.80;17.00;;;;;;5068140;28;20388;-53
2022/03/15 09:22:03;;;;;;;15.25;11.57;;;25.80;16.90;;;;;;5085237;28;20027;-54
2022/03/15 09:24:31;;;;;;;16.27;12.43;;;25.90;16.10;;;;;;5067813;28;20577;-48
2022/03/15 09:26:57;;;;;;;16.55;12.85;;;25.80;16.10;;;;;;5078349;28;20052;-55
2022/03/15 09:29:24;;;;;;;16.00;11.13;;;25.50;14.30;;;;;;5047696;28;20110;-47
2022/03/15 09:31:49;;;;;;;14.85;11.70;;;25.00;15.10;;;;;;5064998;28;20020;-50
2022/03/15 09:34:17;;;;;;;13.95;10.32;;;25.50;14.60;;;;;;5047984;28;20033;-48
2022/03/15 09:36:44;;;;;;;12.68;10.57;;;25.80;13.80;;;;;;5064983;28;20412;-53
2022/03/15 09:39:10;;;;;;;18.38;12.93;;;26.20;13.10;;;;;;5067657;28;20118;-53
2022/03/15 09:41:38;;;;;;;14.85;10.02;;;26.20;12.40;;;;;;5051625;28;20480;-49
2022/03/15 09:44:08;;;;;;;14.55;10.50;;;26.40;11.90;;;;;;5067381;28;20104;-46
2022/03/15 09:46:41;;;;;;;14.07;9.75;;;26.40;11.40;;;;;;5050901;28;20039;-48
2022/03/15 09:49:08;;;;;;;14.77;9.63;;;26.10;11.20;;;;;;5067798;28;20036;-47
2022/03/15 09:51:35;;;;;;;16.85;10.63;;;25.50;11.60;;;;;;5051626;28;20024;-46
2022/03/15 09:54:02;;;;;;;11.70;8.50;;;25.00;12.10;;;;;;5067269;28;20027;-51
2022/03/15 09:56:29;;;;;;;13.18;8.98;;;24.30;12.90;;;;;;5050357;28;20033;-47
2022/03/15 09:58:54;;;;;;;14.98;9.38;;;23.50;14.00;;;;;;5067769;28;20020;-48
2022/03/15 10:01:20;;;;;;;16.35;10.02;;;23.40;14.10;;;;;;5049172;28;20181;-48
2022/03/15 10:03:46;;;;;;;16.02;10.00;;;22.80;14.70;;;;;;5049427;28;20021;-51
2022/03/15 10:06:14;;;;;;;12.80;8.60;;;23.10;14.40;;;;;;5047865;28;20032;-46
2022/03/15 10:08:40;;;;;;;15.13;9.65;;;23.00;13.80;;;;;;5067327;28;20027;-50
2022/03/15 10:11:06;;;;;;;19.50;9.43;;;22.00;15.20;;;;;;5047327;28;20036;-49
2022/03/15 10:13:33;;;;;;;13.73;10.00;;;22.30;15.40;;;;;;5067645;28;20268;-47
2022/03/15 10:16:00;;;;;;;14.55;9.02;;;22.60;14.60;;;;;;5046070;28;20296;-50
2022/03/15 10:18:26;;;;;;;13.27;7.82;;;22.60;14.20;;;;;;5067972;28;20024;-49
2022/03/15 10:20:52;;;;;;;14.43;7.90;;;22.30;14.10;;;;;;5051461;28;20550;-48
2022/03/15 10:23:19;;;;;;;16.15;8.60;;;22.00;14.50;;;;;;5067129;28;20029;-48
2022/03/15 10:25:48;;;;;;;19.45;9.68;;;21.50;15.40;;;;;;5051336;28;20435;-49
2022/03/15 10:28:14;;;;;;;12.63;8.68;;;21.00;16.10;;;;;;5043277;28;20029;-47
2022/03/15 10:30:41;;;;;;;14.73;7.78;;;20.30;17.20;;;;;;5069938;28;20434;-52
2022/03/15 10:33:06;;;;;;;13.50;8.10;;;19.50;18.80;;;;;;5049227;28;20108;-49
2022/03/15 10:35:42;;;;;;;15.82;9.52;;;18.90;20.60;;;;;;5069979;28;20587;-46
2022/03/15 10:38:08;;;;;;;16.35;9.13;;;18.40;21.80;;;;;;5047349;28;20443;-46
2022/03/15 10:40:43;;;;;;;17.45;9.18;;;18.10;22.80;;;;;;5070348;28;20032;-47
2022/03/15 10:43:13;;;;;;;17.48;9.57;;;17.80;23.70;;;;;;5048743;28;20024;-48
2022/03/15 10:45:57;;;;;;;13.45;8.05;;;17.60;24.10;;;;;;5070428;28;20447;-48
2022/03/15 10:48:30;;;;;;;13.05;8.52;;;17.50;24.50;;;;;;5050344;28;20064;-47
2022/03/15 10:51:01;;;;;;;13.27;8.32;;;17.60;25.00;;;;;;5068379;28;20025;-49
2022/03/15 10:53:39;;;;;;;17.13;9.52;;;17.70;24.90;;;;;;5070447;28;20025;-47
2022/03/15 10:56:11;;;;;;;17.08;10.30;;;17.70;25.00;;;;;;5031286;28;20144;-48
2022/03/15 10:58:50;;;;;;;17.25;9.77;;;17.70;25.40;;;;;;5070677;28;20484;-47
2022/03/15 11:01:24;;;;;;;14.02;9.23;;;17.70;25.40;;;;;;5051195;28;20407;-50
2022/03/15 11:04:03;;;;;;;17.85;10.60;;;17.50;25.40;;;;;;5070532;28;20028;-46
2022/03/15 11:06:38;;;;;;;13.38;9.30;;;17.30;25.10;;;;;;5052718;28;20024;-50
2022/03/15 11:09:24;;;;;;;14.63;9.63;;;17.10;25.40;;;;;;5070209;28;20064;-51
2022/03/15 11:12:07;;;;;;;17.58;10.45;;;16.80;26.40;;;;;;5056035;28;20035;-47
2022/03/15 11:14:39;;;;;;;14.10;9.30;;;16.60;27.30;;;;;;5030122;28;20800;-53
2022/03/15 11:17:16;;;;;;;14.95;10.48;;;16.60;26.90;;;;;;5067653;28;20040;-52
2022/03/15 11:19:56;;;;;;;15.02;8.13;;;16.50;27.70;;;;;;5049846;28;20481;-52
2022/03/15 11:22:26;;;;;;;18.73;9.50;;;16.30;27.90;;;;;;5051888;28;20488;-49
2022/03/15 11:25:14;;;;;;;12.35;7.45;;;16.20;27.80;;;;;;5049868;28;20614;-51
2022/03/15 11:27:42;;;;;;;11.60;7.82;;;16.30;26.90;;;;;;5049618;28;20028;-53
2022/03/15 11:30:10;;;;;;;9.68;6.53;;;16.30;26.50;;;;;;5049229;28;20021;-53
2022/03/15 11:32:37;;;;;;;13.82;8.10;;;16.30;26.50;;;;;;5053392;28;20037;-54
2022/03/15 11:35:10;;;;;;;14.40;8.57;;;16.30;26.40;;;;;;5049557;28;20029;-53
2022/03/15 11:37:39;;;;;;;12.63;7.70;;;16.30;26.60;;;;;;5042020;28;20025;-51
2022/03/15 11:40:07;;;;;;;15.23;8.27;;;16.40;26.50;;;;;;5069359;28;20063;-58
2022/03/15 11:42:35;;;;;;;13.65;9.25;;;16.40;26.80;;;;;;5047921;28;20025;-49
2022/03/15 11:45:09;;;;;;;13.10;7.75;;;16.20;27.50;;;;;;5068955;28;20040;-46
2022/03/15 11:47:44;;;;;;;13.23;8.50;;;16.30;27.00;;;;;;5041717;28;20171;-50
2022/03/15 11:50:31;;;;;;;15.30;8.27;;;16.30;27.10;;;;;;5029460;28;20493;-48
2022/03/15 11:53:17;;;;;;;11.20;6.82;;;16.40;27.00;;;;;;5049406;28;20036;-45
2022/03/15 11:55:54;;;;;;;12.13;7.93;;;16.50;25.90;;;;;;5029170;28;20041;-45
2022/03/15 11:58:29;;;;;;;14.82;8.07;;;16.50;25.80;;;;;;5029286;28;20366;-47
2022/03/15 12:01:08;;;;;;;13.60;7.60;;;16.40;25.20;;;;;;5027758;28;20052;-46
2022/03/15 12:03:51;;;;;;;10.82;7.13;;;16.50;25.30;;;;;;5069329;28;20259;-45
2022/03/15 12:06:59;;;;;;;13.02;8.15;;;16.50;25.40;;;;;;5046159;28;20482;-48
2022/03/15 12:10:26;;;;;;;12.18;8.02;;;16.60;25.30;;;;;;5058350;28;20035;-46
2022/03/15 12:13:33;;;;;;;12.60;7.72;;;16.70;24.90;;;;;;5062095;28;20400;-48
2022/03/15 12:16:59;;;;;;;12.65;8.43;;;16.70;25.20;;;;;;5046419;28;20162;-48
2022/03/15 12:20:27;;;;;;;12.85;7.47;;;16.70;25.50;;;;;;5056619;28;20036;-49
2022/03/15 12:23:59;;;;;;;11.25;7.00;;;16.70;24.70;;;;;;5059668;28;20124;-49
2022/03/15 12:27:30;;;;;;;12.70;6.22;;;16.70;23.60;;;;;;5051581;28;20029;-48
2022/03/15 12:31:05;;;;;;;9.57;5.40;;;16.70;23.60;;;;;;5060882;28;20029;-50
2022/03/15 12:34:33;;;;;;;12.68;7.68;;;16.70;22.40;;;;;;5065269;28;20089;-49
2022/03/15 12:37:51;;;;;;;;;;;16.70;23.90;;;;;;5057913;28;20515;-45
2022/03/15 12:41:22;;;;;;;10.73;7.53;;;16.70;24.20;;;;;;5033309;28;20312;-46
2022/03/15 12:44:40;;;;;;;10.75;7.05;;;16.40;23.90;;;;;;5049940;28;20021;-48
2022/03/15 12:48:08;;;;;;;13.48;7.97;;;16.30;24.10;;;;;;5056846;28;20036;-45